Time;durP1;ratioP1;P1;durP2;ratioP2;P2;SDS_P1;SDS_P2;PMS_P1;PMS_P2;Temp;Humidity;BMP_temperature;BMP_pressure;BME280_temperature;BME280_humidity;BME280_pressure;Samples;Min_cycle;Max_cycle;Signal;HPM_P1;HPM_P2
2022/01/04 00:00:54;;;;;;;4.00;3.60;;;;;;;-143.84;62.43;45132.84;5010578;28;20449;-74
2022/01/04 00:03:22;;;;;;;6.27;4.10;;;;;;;-143.84;63.43;45100.47;5010201;28;20482;-74
2022/01/04 00:05:49;;;;;;;8.10;4.40;;;;;;;-143.84;63.97;45142.38;5014256;28;20504;-73
2022/01/04 00:08:17;;;;;;;6.43;4.20;;;;;;;-143.84;64.28;45132.84;5010125;28;21000;-74
2022/01/04 00:10:45;;;;;;;6.77;4.40;;;;;;;-143.84;64.67;45148.09;5010011;28;20464;-73
2022/01/04 00:13:23;;;;;;;6.57;5.30;;;;;;;-143.84;64.86;45159.50;5010168;28;20453;-74
2022/01/04 00:15:52;;;;;;;5.57;3.97;;;;;;;-143.84;65.40;45134.75;5020751;28;20500;-73
2022/01/04 00:18:19;;;;;;;7.47;4.80;;;;;;;-143.84;65.28;45117.63;5029445;28;20494;-73
2022/01/04 00:20:48;;;;;;;3.90;3.60;;;;;;;-143.84;65.70;45125.22;5029524;28;20950;-73
2022/01/04 00:23:18;;;;;;;5.47;3.83;;;;;;;-143.84;65.74;45153.81;5029277;28;20504;-74
2022/01/04 00:25:46;;;;;;;9.30;4.23;;;;;;;-143.84;65.70;45157.59;5029149;28;20513;-74
2022/01/04 00:28:13;;;;;;;4.33;4.03;;;;;;;-143.84;65.28;45100.47;5028663;28;20516;-74
2022/01/04 00:30:41;;;;;;;4.70;4.20;;;;;;;-143.84;65.57;45136.66;5029130;28;20446;-74
2022/01/04 00:33:10;;;;;;;5.50;4.00;;;;;;;-143.84;65.34;45129.03;5029202;28;20439;-74
2022/01/04 00:35:37;;;;;;;5.60;3.30;;;;;;;-143.84;65.28;45140.47;5029172;28;20463;-74
2022/01/04 00:38:05;;;;;;;6.57;3.53;;;;;;;-143.84;65.31;45119.53;5029016;28;20482;-74
2022/01/04 00:40:34;;;;;;;15.53;3.53;;;;;;;-143.84;64.86;45127.13;5028513;28;20463;-69
2022/01/04 00:43:01;;;;;;;3.70;3.30;;;;;;;-143.84;65.12;45140.47;5029076;28;20999;-69
2022/01/04 00:45:31;;;;;;;8.57;4.30;;;;;;;-143.84;65.30;45144.28;5029106;28;20478;-69
2022/01/04 00:50:43;;;;;;;5.63;5.13;;;;;;;-143.84;65.46;45153.81;5029338;28;20442;-69
2022/01/04 00:53:10;;;;;;;11.10;4.00;;;;;;;-143.84;65.80;45132.84;5029689;28;20505;-71
2022/01/04 00:55:40;;;;;;;9.43;3.57;;;;;;;-143.84;65.96;45140.47;5029320;28;20806;-71
2022/01/04 00:58:07;;;;;;;5.00;4.27;;;;;;;-143.84;66.37;45142.38;5029149;28;21116;-70
2022/01/04 01:00:34;;;;;;;5.53;4.20;;;;;;;-143.84;66.47;45153.81;5011145;28;20463;-70
2022/01/04 01:03:01;;;;;;;4.50;4.07;;;;;;;-143.84;66.62;45148.09;5028994;28;20450;-71
2022/01/04 01:05:29;;;;;;;3.90;3.60;;;;;;;-143.84;66.67;45148.09;5029233;28;21136;-69
2022/01/04 01:07:57;;;;;;;5.77;4.20;;;;;;;-143.84;66.32;45132.84;5028917;28;20447;-70
2022/01/04 01:10:41;;;;;;;4.03;3.47;;;;;;;-143.84;66.47;45125.22;5029259;28;20835;-69
2022/01/04 01:13:11;;;;;;;8.53;4.27;;;;;;;-143.84;66.25;45127.13;5029197;28;20490;-70
2022/01/04 01:15:40;;;;;;;3.97;3.57;;;;;;;-143.84;66.24;45140.47;5028296;28;20505;-69
2022/01/04 01:18:08;;;;;;;11.60;3.90;;;;;;;-143.84;66.26;45153.81;5026127;28;20540;-69
2022/01/04 01:20:35;;;;;;;6.57;3.80;;;;;;;-143.84;65.77;45142.38;5028591;28;20443;-69
2022/01/04 01:23:02;;;;;;;4.40;3.57;;;;;;;-143.84;65.69;45127.13;5028666;28;20504;-69
2022/01/04 01:25:29;;;;;;;4.53;3.93;;;;;;;-143.84;65.52;45140.47;5022860;28;20508;-69
2022/01/04 01:27:57;;;;;;;4.43;4.03;;;;;;;-143.84;65.56;45125.22;5028761;28;20509;-69
2022/01/04 01:30:27;;;;;;;5.80;4.13;;;;;;;-143.84;65.79;45142.38;5022513;28;20458;-69
2022/01/04 01:32:54;;;;;;;18.43;4.50;;;;;;;-143.84;66.02;45144.28;5028034;28;20550;-69
2022/01/04 01:35:21;;;;;;;5.70;4.20;;;;;;;-143.84;65.63;45146.19;5028669;28;20501;-69
2022/01/04 01:37:48;;;;;;;5.20;4.10;;;;;;;-143.84;66.09;45142.38;5025248;28;21093;-69
2022/01/04 01:40:16;;;;;;;5.30;4.27;;;;;;;-143.84;66.11;45148.09;5028815;28;20454;-74
2022/01/04 01:42:43;;;;;;;6.60;4.13;;;;;;;-143.84;65.99;45132.84;5024927;28;20450;-74
2022/01/04 01:45:13;;;;;;;4.50;4.00;;;;;;;-143.84;66.21;45150.00;5032098;28;20441;-74
2022/01/04 01:47:42;;;;;;;5.50;4.30;;;;;;;-143.84;66.24;45142.38;5024593;28;20462;-74
2022/01/04 01:50:11;;;;;;;4.50;4.03;;;;;;;-143.84;66.42;45129.03;5029712;28;21222;-74
2022/01/04 01:52:39;;;;;;;5.90;3.93;;;;;;;-143.84;66.40;45157.59;5031494;28;20531;-74
2022/01/04 01:55:08;;;;;;;6.20;5.07;;;;;;;-143.84;66.61;45127.13;5032258;28;21105;-74
2022/01/04 01:57:35;;;;;;;4.27;3.60;;;;;;;-143.84;66.57;45136.66;5031539;28;20503;-74
2022/01/04 02:00:04;;;;;;;4.20;3.67;;;;;;;-143.84;67.05;45132.84;5032353;28;20457;-74
2022/01/04 02:02:31;;;;;;;7.03;4.10;;;;;;;-143.84;67.12;45153.81;5031594;28;20512;-74
2022/01/04 02:05:00;;;;;;;4.47;4.03;;;;;;;-143.84;67.14;45110.00;5031738;28;20607;-74
2022/01/04 02:07:28;;;;;;;3.50;3.30;;;;;;;-143.84;67.39;45136.66;5031826;28;20449;-74
2022/01/04 02:10:02;;;;;;;4.10;3.70;;;;;;;-143.84;67.64;45142.38;5022828;28;20474;-74
2022/01/04 02:12:32;;;;;;;4.37;3.97;;;;;;;-143.84;67.80;45138.56;5027023;28;20461;-74
2022/01/04 02:14:59;;;;;;;6.80;3.83;;;;;;;-143.84;67.60;45144.28;5029457;28;20516;-74
2022/01/04 02:17:26;;;;;;;5.13;4.33;;;;;;;-143.84;68.06;45138.56;5026589;28;20959;-74
2022/01/04 02:19:57;;;;;;;6.20;3.97;;;;;;;-143.84;68.15;45159.50;5027809;28;20486;-74
2022/01/04 02:22:25;;;;;;;4.57;4.03;;;;;;;-143.84;68.09;45170.94;5026697;28;20523;-74
2022/01/04 02:24:52;;;;;;;3.30;3.00;;;;;;;-143.84;68.26;45138.56;5022856;28;20510;-74
2022/01/04 02:27:20;;;;;;;4.53;3.33;;;;;;;-143.84;68.01;45155.69;5021387;28;20476;-74
2022/01/04 02:29:48;;;;;;;5.10;3.63;;;;;;;-143.84;67.57;45144.28;5026638;28;20450;-69
2022/01/04 02:32:16;;;;;;;10.23;4.47;;;;;;;-143.84;67.61;45151.91;5023542;28;20457;-69
2022/01/04 02:34:48;;;;;;;7.80;3.80;;;;;;;-143.84;67.47;45148.09;5032077;28;20893;-69
2022/01/04 02:37:20;;;;;;;5.70;3.63;;;;;;;-143.84;67.54;45161.41;5021000;28;20553;-69
2022/01/04 02:39:48;;;;;;;4.43;3.90;;;;;;;-143.84;67.54;45127.13;5024859;28;21022;-69
2022/01/04 02:42:15;;;;;;;7.13;3.50;;;;;;;-143.84;67.78;45142.38;5027153;28;20503;-69
2022/01/04 02:44:43;;;;;;;6.10;3.73;;;;;;;-143.84;68.02;45148.09;5040549;28;20510;-69
2022/01/04 02:47:10;;;;;;;3.93;3.63;;;;;;;-143.84;68.23;45121.44;5036728;28;20516;-69
2022/01/04 02:49:37;;;;;;;6.20;4.40;;;;;;;-143.84;68.52;45129.03;5025486;28;20513;-69
2022/01/04 02:52:05;;;;;;;6.33;4.10;;;;;;;-143.84;68.69;45157.59;5031422;28;20438;-69
2022/01/04 02:54:34;;;;;;;5.30;4.10;;;;;;;-143.84;68.50;45153.81;5029919;28;20458;-69
2022/01/04 02:57:01;;;;;;;3.77;3.47;;;;;;;-143.84;68.76;45144.28;5048314;28;20508;-69
2022/01/04 02:59:28;;;;;;;12.90;4.17;;;;;;;-143.84;68.83;45146.19;5031031;28;20547;-69
2022/01/04 03:01:55;;;;;;;4.53;4.03;;;;;;;-143.84;69.05;45151.91;5030421;28;20967;-69
2022/01/04 03:04:22;;;;;;;7.87;4.00;;;;;;;-143.84;68.99;45169.03;5007217;28;20454;-69
2022/01/04 03:06:50;;;;;;;5.70;4.00;;;;;;;-143.84;69.20;45176.66;5030320;28;20511;-69
2022/01/04 03:09:17;;;;;;;4.07;3.53;;;;;;;-143.84;68.81;45132.84;5027942;28;20452;-69
2022/01/04 03:11:46;;;;;;;6.20;4.47;;;;;;;-143.84;68.75;45161.41;5029734;28;20454;-69
2022/01/04 03:14:13;;;;;;;6.20;3.97;;;;;;;-143.84;68.82;45136.66;5050512;28;20554;-69
2022/01/04 03:16:40;;;;;;;5.23;4.73;;;;;;;-143.84;69.14;45155.69;5035176;28;21028;-70
2022/01/04 03:19:07;;;;;;;6.20;4.10;;;;;;;-143.84;69.42;45169.03;5030784;28;20488;-70
2022/01/04 03:21:35;;;;;;;3.50;3.20;;;;;;;-143.84;69.19;45159.50;5031187;28;20444;-69
2022/01/04 03:24:04;;;;;;;6.00;3.70;;;;;;;-143.84;69.35;45172.84;5030873;28;20576;-70
2022/01/04 03:26:32;;;;;;;7.03;4.20;;;;;;;-143.84;69.35;45159.50;5016246;28;20541;-70
2022/01/04 03:29:01;;;;;;;4.90;3.87;;;;;;;-143.84;69.03;45159.50;5030500;28;20879;-70
2022/01/04 03:31:30;;;;;;;5.57;4.33;;;;;;;-143.84;69.06;45132.84;5024992;28;20527;-70
2022/01/04 03:33:57;;;;;;;5.30;3.70;;;;;;;-143.84;69.35;45151.91;5022885;28;20469;-70
2022/01/04 03:36:25;;;;;;;4.77;4.10;;;;;;;-143.84;69.49;45159.50;5020655;28;20485;-71
2022/01/04 03:38:53;;;;;;;4.03;3.63;;;;;;;-143.84;69.49;45121.44;5018682;28;20492;-70
2022/01/04 03:41:21;;;;;;;4.37;3.97;;;;;;;-143.84;69.87;45155.69;5030345;28;20449;-70
2022/01/04 03:43:49;;;;;;;8.07;4.20;;;;;;;-143.84;69.67;45144.28;5029901;28;20870;-70
2022/01/04 03:46:18;;;;;;;5.67;3.80;;;;;;;-143.84;70.30;45184.25;5030571;28;20452;-70
2022/01/04 03:48:46;;;;;;;4.40;3.80;;;;;;;-143.84;70.35;45148.09;5027855;28;20458;-70
2022/01/04 03:51:13;;;;;;;4.17;3.73;;;;;;;-143.84;70.46;45161.41;5030249;28;20449;-70
2022/01/04 03:53:40;;;;;;;8.27;3.80;;;;;;;-143.84;70.34;45140.47;5025455;28;20524;-71
2022/01/04 03:56:08;;;;;;;4.53;3.73;;;;;;;-143.84;70.68;45165.22;5030516;28;20443;-70
2022/01/04 03:58:36;;;;;;;7.63;4.70;;;;;;;-143.84;71.17;45148.09;5022532;28;20548;-70
2022/01/04 04:01:04;;;;;;;6.17;4.13;;;;;;;-143.84;70.60;45151.91;5030129;28;20441;-70
2022/01/04 04:03:33;;;;;;;9.23;4.27;;;;;;;-143.84;70.37;45142.38;5023007;28;20523;-70
2022/01/04 04:06:01;;;;;;;6.10;4.63;;;;;;;-143.84;70.29;45155.69;5022872;28;20457;-70
2022/01/04 04:08:28;;;;;;;5.73;4.23;;;;;;;-143.84;70.27;45136.66;5029190;28;20461;-70
2022/01/04 04:10:55;;;;;;;10.27;4.07;;;;;;;-143.84;70.12;45142.38;5029875;28;20466;-70
2022/01/04 04:13:23;;;;;;;5.10;4.07;;;;;;;-143.84;70.01;45150.00;5029958;28;20530;-70
2022/01/04 04:15:50;;;;;;;4.13;3.73;;;;;;;-143.84;69.46;45142.38;5029499;28;20906;-70
2022/01/04 04:18:17;;;;;;;4.90;3.57;;;;;;;-143.84;69.38;45178.56;5022783;28;20463;-69
2022/01/04 04:20:47;;;;;;;4.93;3.40;;;;;;;-143.84;69.52;45144.28;5025060;28;20501;-69
2022/01/04 04:23:14;;;;;;;23.50;14.57;;;;;;;-143.84;69.08;45144.28;5026632;28;20466;-69
2022/01/04 04:25:41;;;;;;;4.67;4.13;;;;;;;-143.84;69.45;45151.91;5029609;28;20862;-69
2022/01/04 04:28:09;;;;;;;6.43;4.40;;;;;;;-143.84;69.80;45132.84;5023083;28;20446;-70
2022/01/04 04:30:37;;;;;;;8.97;6.80;;;;;;;-143.84;70.19;45180.47;5007249;28;20454;-71
2022/01/04 04:33:04;;;;;;;10.47;4.97;;;;;;;-143.84;70.25;45144.28;5009668;28;20501;-69
2022/01/04 04:35:32;;;;;;;9.33;5.07;;;;;;;-143.84;70.34;45151.91;5019670;28;20994;-70
2022/01/04 04:38:02;;;;;;;6.60;4.80;;;;;;;-143.84;70.13;45172.84;5029669;28;20447;-70
2022/01/04 04:40:29;;;;;;;8.27;4.87;;;;;;;-143.84;70.23;45159.50;5025656;28;20481;-69
2022/01/04 04:42:57;;;;;;;4.83;4.33;;;;;;;-143.84;70.56;45172.84;5028812;28;20463;-70
2022/01/04 04:45:24;;;;;;;5.80;3.97;;;;;;;-143.84;70.55;45140.47;5029389;28;20444;-70
2022/01/04 04:47:51;;;;;;;11.33;6.27;;;;;;;-143.84;70.43;45151.91;5011699;28;21016;-69
2022/01/04 04:50:19;;;;;;;6.60;4.37;;;;;;;-143.84;72.61;45146.19;5027513;28;20438;-72
2022/01/04 04:52:46;;;;;;;7.60;4.70;;;;;;;-143.84;70.93;45169.03;5005680;28;20456;-69
2022/01/04 04:55:15;;;;;;;5.30;4.53;;;;;;;-143.84;70.93;45161.41;5029242;28;20462;-70
2022/01/04 04:57:42;;;;;;;8.27;5.10;;;;;;;-143.84;70.00;45170.94;5028803;28;20482;-69
2022/01/04 05:00:12;;;;;;;5.30;4.10;;;;;;;-143.84;70.43;45157.59;5028938;28;20534;-70
2022/01/04 05:02:39;;;;;;;8.00;4.30;;;;;;;-143.84;70.56;45153.81;5028826;28;20989;-71
2022/01/04 05:05:08;;;;;;;6.60;3.97;;;;;;;-143.84;70.41;45167.13;5028284;28;20538;-72
2022/01/04 05:07:35;;;;;;;8.90;4.33;;;;;;;-143.84;71.00;45144.28;5028995;28;20810;-71
2022/01/04 05:10:04;;;;;;;11.67;4.10;;;;;;;-143.84;71.05;45170.94;5028524;28;20987;-71
2022/01/04 05:12:32;;;;;;;5.40;3.63;;;;;;;-143.84;71.86;45182.38;5028858;28;20455;-71
2022/01/04 05:14:59;;;;;;;13.20;4.67;;;;;;;-143.84;71.69;45169.03;5028477;28;20504;-71
2022/01/04 05:17:26;;;;;;;4.93;3.70;;;;;;;-143.84;71.82;45180.47;5028832;28;20514;-71
2022/01/04 05:19:54;;;;;;;4.77;3.90;;;;;;;-143.84;72.20;45155.69;5027397;28;21113;-71
2022/01/04 05:22:21;;;;;;;9.03;3.53;;;;;;;-143.84;72.08;45146.19;5026893;28;20456;-71
2022/01/04 05:24:48;;;;;;;7.83;3.50;;;;;;;-143.84;72.56;45146.19;5033214;28;20492;-71
2022/01/04 05:27:15;;;;;;;9.33;4.10;;;;;;;-143.84;72.89;45214.72;5048738;28;20505;-71
2022/01/04 05:29:44;;;;;;;8.50;4.40;;;;;;;-143.84;72.91;45163.31;5033125;28;20456;-71
2022/01/04 05:32:11;;;;;;;5.93;3.90;;;;;;;-143.84;73.33;45144.28;5032911;28;20454;-71
2022/01/04 05:34:38;;;;;;;5.07;4.00;;;;;;;-143.84;73.10;45148.09;5035419;28;20490;-71
2022/01/04 05:37:06;;;;;;;4.90;4.40;;;;;;;-143.84;73.10;45146.19;5036876;28;20461;-71
2022/01/04 05:39:33;;;;;;;14.67;5.80;;;;;;;-143.84;73.42;45144.28;5015364;28;20481;-74
2022/01/04 05:42:00;;;;;;;10.90;5.20;;;;;;;-143.84;73.63;45180.47;5020986;28;20821;-74
2022/01/04 05:44:27;;;;;;;7.10;4.00;;;;;;;-143.84;73.37;45151.91;5025174;28;20904;-74
2022/01/04 05:46:56;;;;;;;9.50;4.17;;;;;;;-143.84;72.92;45167.13;5034722;28;20462;-74
2022/01/04 05:49:23;;;;;;;5.00;3.73;;;;;;;-143.84;72.93;45159.50;5044916;28;20964;-71
2022/01/04 05:51:50;;;;;;;5.27;4.40;;;;;;;-143.84;73.27;45169.03;5035280;28;20838;-71
2022/01/04 05:54:17;;;;;;;6.67;4.07;;;;;;;-143.84;73.02;45151.91;5034907;28;20471;-71
2022/01/04 05:56:45;;;;;;;8.07;4.63;;;;;;;-143.84;72.95;45144.28;5035158;28;20511;-74
2022/01/04 05:59:12;;;;;;;7.00;4.40;;;;;;;-143.84;72.90;45138.56;5034837;28;20443;-73
2022/01/04 06:01:39;;;;;;;6.20;4.50;;;;;;;-143.84;73.36;45153.81;5035683;28;20478;-77
2022/01/04 06:04:10;;;;;;;7.20;4.67;;;;;;;-143.84;73.32;45161.41;5036103;28;20448;-71
2022/01/04 06:06:39;;;;;;;7.87;4.40;;;;;;;-143.84;73.33;45163.31;5035331;28;20451;-76
2022/01/04 06:09:08;;;;;;;8.67;4.43;;;;;;;-143.84;72.84;45144.28;5036557;28;20460;-77
2022/01/04 06:11:56;;;;;;;7.83;5.33;;;;;;;-143.84;73.35;45165.22;5043974;28;20456;-74
2022/01/04 06:17:10;;;;;;;7.60;5.20;;;;;;;-143.84;73.18;45155.69;5040987;28;20461;-75
2022/01/04 06:19:40;;;;;;;5.23;4.47;;;;;;;-143.84;72.34;45146.19;5033746;28;20570;-74
2022/01/04 06:22:07;;;;;;;4.40;4.00;;;;;;;-143.84;72.61;45142.38;5034882;28;20452;-74
2022/01/04 06:24:36;;;;;;;11.17;4.10;;;;;;;-143.84;72.63;45153.81;5035192;28;20438;-74
2022/01/04 06:27:07;;;;;;;6.60;4.20;;;;;;;-143.84;72.66;45161.41;5034945;28;20437;-70
2022/01/04 06:29:35;;;;;;;5.77;4.57;;;;;;;-143.84;72.25;45163.31;5036313;28;20453;-76
2022/01/04 06:32:03;;;;;;;8.77;5.00;;;;;;;-143.84;72.25;45155.69;5032428;28;20454;-76
2022/01/04 06:34:32;;;;;;;5.43;3.63;;;;;;;-143.84;72.27;45163.31;5035348;28;20527;-77
2022/01/04 06:37:00;;;;;;;5.77;4.00;;;;;;;-143.84;72.11;45172.84;5025312;28;20465;-71
2022/01/04 06:39:28;;;;;;;4.30;3.90;;;;;;;-143.84;71.94;45159.50;5028214;28;21045;-77
2022/01/04 06:41:55;;;;;;;4.40;4.00;;;;;;;-143.84;71.34;45151.91;5027421;28;20457;-76
2022/01/04 06:44:22;;;;;;;6.60;3.50;;;;;;;-143.84;70.99;45144.28;5035061;28;20959;-71
2022/01/04 06:46:51;;;;;;;4.80;4.30;;;;;;;-143.84;70.83;45148.09;5013974;28;20461;-70
2022/01/04 06:49:19;;;;;;;6.43;4.27;;;;;;;-143.84;70.58;45178.56;5016277;28;20569;-70
2022/01/04 06:51:48;;;;;;;4.63;3.20;;;;;;;-143.84;70.37;45136.66;5023722;28;20475;-70
2022/01/04 06:54:19;;;;;;;8.60;3.97;;;;;;;-143.84;69.84;45138.56;5026166;28;20462;-70
2022/01/04 06:56:48;;;;;;;4.73;3.33;;;;;;;-143.84;69.14;45132.84;5014166;28;20785;-73
2022/01/04 06:59:16;;;;;;;13.23;3.30;;;;;;;-143.84;68.73;45146.19;5015686;28;21076;-70
2022/01/04 07:01:43;;;;;;;5.17;3.90;;;;;;;-143.84;68.21;45157.59;5023261;28;21018;-71
2022/01/04 07:04:11;;;;;;;8.03;4.50;;;;;;;-143.84;67.85;45151.91;5029014;28;20951;-70
2022/01/04 07:06:38;;;;;;;10.70;3.80;;;;;;;-143.84;68.01;45150.00;5023296;28;20465;-70
2022/01/04 07:09:07;;;;;;;6.53;4.10;;;;;;;-143.84;67.72;45146.19;5021665;28;20448;-71
2022/01/04 07:11:36;;;;;;;5.90;3.87;;;;;;;-143.84;67.41;45155.69;5027274;28;20803;-71
2022/01/04 07:14:03;;;;;;;5.77;3.53;;;;;;;-143.84;67.27;45134.75;5012940;28;20459;-71
2022/01/04 07:16:30;;;;;;;5.60;3.90;;;;;;;-143.84;67.16;45148.09;5018394;28;20461;-70
2022/01/04 07:18:57;;;;;;;7.93;4.70;;;;;;;-143.84;66.61;45157.59;5022936;28;20529;-73
2022/01/04 07:21:25;;;;;;;6.27;3.70;;;;;;;-143.84;66.48;45218.53;5019733;28;20493;-74
2022/01/04 07:23:54;;;;;;;5.30;3.97;;;;;;;-143.84;66.47;45138.56;5016146;28;20462;-74
2022/01/04 07:26:22;;;;;;;4.40;4.00;;;;;;;-143.84;65.94;45136.66;5015831;28;20457;-71
2022/01/04 07:28:51;;;;;;;5.10;3.60;;;;;;;-143.84;66.00;45127.13;5017576;28;20462;-71
2022/01/04 07:31:20;;;;;;;3.40;3.10;;;;;;;-143.84;65.50;45127.13;5019011;28;20485;-74
2022/01/04 07:33:47;;;;;;;3.70;3.40;;;;;;;-143.84;65.55;45127.13;5028734;28;20509;-76
2022/01/04 07:36:15;;;;;;;4.90;3.50;;;;;;;-143.84;65.22;45148.09;5030189;28;20975;-76
2022/01/04 07:38:43;;;;;;;4.30;3.80;;;;;;;-143.84;65.31;45115.72;5022198;28;20513;-71
2022/01/04 07:41:11;;;;;;;4.13;3.70;;;;;;;-143.84;65.23;45138.56;5016746;28;21011;-71
2022/01/04 07:43:39;;;;;;;8.13;4.40;;;;;;;-143.84;64.17;45161.41;5018480;28;20455;-71
2022/01/04 07:46:07;;;;;;;6.30;3.90;;;;;;;-143.84;63.54;45132.84;5016037;28;20470;-71
2022/01/04 07:48:35;;;;;;;5.80;4.40;;;;;;;-143.84;63.29;45134.75;5018926;28;20466;-71
2022/01/04 07:51:02;;;;;;;6.13;4.63;;;;;;;-143.84;63.02;45151.91;5017142;28;20458;-71
2022/01/04 07:53:30;;;;;;;8.00;4.40;;;;;;;-143.84;61.70;45125.22;5030529;28;20833;-71
2022/01/04 07:55:58;;;;;;;5.63;3.83;;;;;;;-143.84;61.11;45129.03;5030448;28;20435;-73
2022/01/04 07:58:26;;;;;;;5.30;3.80;;;;;;;-143.84;59.91;45121.44;5030092;28;20972;-71
2022/01/04 08:00:53;;;;;;;4.23;3.27;;;;;;;-143.84;60.47;45127.13;5030453;28;20989;-71
2022/01/04 08:03:22;;;;;;;6.80;4.00;;;;;;;-143.84;59.56;45138.56;5030325;28;20802;-71
2022/01/04 08:05:49;;;;;;;6.20;3.90;;;;;;;-143.84;58.82;45140.47;5030522;28;20519;-71
2022/01/04 08:08:17;;;;;;;5.30;3.50;;;;;;;-143.84;58.55;45153.81;5030110;28;20441;-71
2022/01/04 08:10:46;;;;;;;4.17;3.77;;;;;;;-143.84;57.37;45117.63;5030325;28;20446;-74
2022/01/04 08:13:14;;;;;;;4.83;4.30;;;;;;;-143.84;56.98;45104.28;5029337;28;20449;-75
2022/01/04 08:15:41;;;;;;;8.00;3.57;;;;;;;-143.84;56.55;45113.81;5028939;28;20485;-71
2022/01/04 08:18:08;;;;;;;4.33;3.40;;;;;;;-143.84;54.62;45111.91;5016818;28;21042;-71
2022/01/04 08:20:37;;;;;;;3.97;3.50;;;;;;;-143.84;52.93;45117.63;5009286;28;20505;-71
2022/01/04 08:23:05;;;;;;;8.17;3.73;;;;;;;-143.84;52.52;45117.63;5009355;28;20440;-71
2022/01/04 08:25:32;;;;;;;5.07;3.70;;;;;;;-143.84;52.03;45102.38;5009422;28;20469;-72
2022/01/04 08:27:59;;;;;;;5.20;3.73;;;;;;;-143.84;50.53;45132.84;5010307;28;20504;-77
2022/01/04 08:30:27;;;;;;;3.80;3.50;;;;;;;-143.84;49.60;45113.81;5010250;28;20443;-71
2022/01/04 08:32:54;;;;;;;5.40;3.80;;;;;;;-143.84;49.57;45121.44;5009810;28;20880;-72
2022/01/04 08:35:22;;;;;;;7.17;4.00;;;;;;;-143.84;49.28;45090.97;5017507;28;20560;-75
2022/01/04 08:37:51;;;;;;;6.40;4.20;;;;;;;-143.84;49.73;45102.38;5029750;28;20499;-71
2022/01/04 08:40:18;;;;;;;8.10;3.67;;;;;;;-143.84;49.41;45098.56;5029356;28;20482;-75
2022/01/04 08:42:45;;;;;;;7.60;4.70;;;;;;;-143.84;48.03;45102.38;5029219;28;20443;-71
2022/01/04 08:45:13;;;;;;;10.17;3.93;;;;;;;-143.84;47.79;45096.66;5029654;28;20438;-72
2022/01/04 08:47:40;;;;;;;6.17;4.40;;;;;;;-143.84;46.75;45102.38;5028952;28;20440;-72
2022/01/04 08:50:11;;;;;;;5.40;4.40;;;;;;;-143.84;46.52;45106.19;5029283;28;20506;-72
2022/01/04 08:52:40;;;;;;;8.10;5.10;;;;;;;-143.84;45.53;45102.38;5029230;28;20461;-72
2022/01/04 08:55:10;;;;;;;5.57;4.80;;;;;;;-143.84;45.33;45083.34;5029225;28;20438;-72
2022/01/04 08:57:37;;;;;;;11.63;5.47;;;;;;;-143.84;44.30;45081.44;5011462;28;20499;-72
2022/01/04 09:00:06;;;;;;;10.60;4.73;;;;;;;-143.84;43.67;45068.13;5028370;28;20955;-75
2022/01/04 09:02:34;;;;;;;15.23;5.90;;;;;;;-143.84;44.36;45073.81;5028563;28;20473;-75
2022/01/04 09:05:02;;;;;;;16.00;5.80;;;;;;;-143.84;43.18;45068.13;5029015;28;20521;-75
2022/01/04 09:07:29;;;;;;;5.70;5.10;;;;;;;-143.84;42.08;45073.81;5028939;28;20438;-75
2022/01/04 09:09:56;;;;;;;12.83;5.23;;;;;;;-143.84;40.54;45075.72;5028880;28;20446;-75
2022/01/04 09:12:32;;;;;;;6.07;5.47;;;;;;;-143.84;40.11;45064.31;5029906;28;20500;-77
2022/01/04 09:15:06;;;;;;;16.67;5.90;;;;;;;-143.84;39.61;45071.91;5029493;28;21204;-77
2022/01/04 09:20:18;;;;;;;8.60;5.10;;;;;;;-143.84;39.21;45083.34;5029993;28;21072;-77
2022/01/04 09:22:45;;;;;;;14.50;5.03;;;;;;;-143.84;39.09;45049.06;5029903;28;20822;-77
2022/01/04 09:25:12;;;;;;;9.87;5.67;;;;;;;-143.84;39.49;45058.59;5029753;28;20465;-77
2022/01/04 09:27:41;;;;;;;7.37;5.17;;;;;;;-143.84;39.90;45047.16;5029728;28;20789;-77
2022/01/04 09:30:09;;;;;;;7.23;4.93;;;;;;;-143.84;38.93;45052.88;5029518;28;20508;-77
2022/01/04 09:32:36;;;;;;;7.40;4.50;;;;;;;-143.84;38.95;45049.06;5029528;28;20501;-77
2022/01/04 09:35:05;;;;;;;8.00;4.23;;;;;;;-143.84;38.27;45033.84;5029535;28;20836;-72
2022/01/04 09:37:33;;;;;;;6.50;3.73;;;;;;;-143.84;38.17;45054.78;5028433;28;20851;-73
2022/01/04 09:40:00;;;;;;;5.20;3.37;;;;;;;-143.84;38.76;45054.78;5028899;28;20461;-72
2022/01/04 09:42:27;;;;;;;4.17;2.80;;;;;;;-143.84;37.73;45041.44;5028526;28;20481;-72
2022/01/04 09:44:56;;;;;;;6.53;3.20;;;;;;;-143.84;37.99;45031.94;5028622;28;20454;-72
2022/01/04 09:47:23;;;;;;;13.30;4.30;;;;;;;-143.84;38.62;45041.44;5028593;28;20443;-72
2022/01/04 09:49:51;;;;;;;7.90;4.10;;;;;;;-143.84;38.67;45054.78;5028407;28;20450;-72
2022/01/04 09:52:21;;;;;;;4.73;4.33;;;;;;;-143.84;38.19;45041.44;5028327;28;20446;-72
2022/01/04 09:54:53;;;;;;;4.63;3.63;;;;;;;-143.84;37.80;45052.88;5028650;28;20446;-71
2022/01/04 09:57:20;;;;;;;3.90;3.47;;;;;;;-143.84;37.16;45050.97;5028656;28;20438;-72
2022/01/04 09:59:49;;;;;;;5.80;4.47;;;;;;;-143.84;37.55;45041.44;5028453;28;20524;-72
2022/01/04 10:02:21;;;;;;;8.53;5.00;;;;;;;-143.84;37.30;45035.75;5028395;28;20490;-72
2022/01/04 10:04:49;;;;;;;13.43;5.97;;;;;;;-143.84;37.94;45024.31;5028623;28;20443;-72
2022/01/04 10:07:22;;;;;;;9.73;6.10;;;;;;;-143.84;37.11;45033.84;5028539;28;20446;-72
2022/01/04 10:09:52;;;;;;;19.23;7.70;;;;;;;-143.84;37.42;45075.72;5028304;28;20473;-72
2022/01/04 10:12:21;;;;;;;21.43;11.47;;;;;;;-143.84;37.32;45049.06;5031280;28;20442;-72
2022/01/04 10:14:50;;;;;;;21.60;11.93;;;;;;;-143.84;36.85;45054.78;5031902;28;20482;-72
2022/01/04 10:17:23;;;;;;;17.13;9.40;;;;;;;-143.84;37.72;45030.03;5031895;28;21021;-71
2022/01/04 10:19:53;;;;;;;19.27;10.40;;;;;;;-143.84;37.14;45039.53;5031620;28;20457;-71
2022/01/04 10:22:24;;;;;;;19.40;9.80;;;;;;;-143.84;37.58;45060.50;5031414;28;20481;-72
2022/01/04 10:25:10;;;;;;;16.37;7.93;;;;;;;-143.84;36.92;45041.44;5031631;28;20542;-72
2022/01/04 10:27:39;;;;;;;18.20;7.83;;;;;;;-143.84;36.93;45049.06;5031898;28;20435;-72
2022/01/04 10:30:26;;;;;;;18.10;7.77;;;;;;;-143.84;36.87;45037.66;5031272;28;20854;-72
2022/01/04 10:33:00;;;;;;;12.37;7.90;;;;;;;-143.84;36.86;45031.94;5031637;28;20467;-71
2022/01/04 10:35:34;;;;;;;14.03;6.50;;;;;;;-143.84;36.67;45041.44;5031838;28;20477;-72
2022/01/04 10:38:09;;;;;;;15.20;7.20;;;;;;;-143.84;36.25;45049.06;5031566;28;20465;-72
2022/01/04 10:40:37;;;;;;;16.30;7.43;;;;;;;-143.84;37.06;45039.53;5031532;28;20450;-71
2022/01/04 10:43:11;;;;;;;17.23;7.43;;;;;;;-143.84;36.56;45054.78;5031652;28;20458;-72
2022/01/04 10:45:40;;;;;;;10.77;6.20;;;;;;;-143.84;36.08;45010.97;5031520;28;20800;-72
2022/01/04 10:48:20;;;;;;;10.57;6.40;;;;;;;-143.84;36.34;45037.66;5031639;28;20705;-72
2022/01/04 10:50:49;;;;;;;14.63;6.50;;;;;;;-143.84;36.03;45026.22;5031883;28;20879;-71
2022/01/04 10:53:28;;;;;;;9.60;4.77;;;;;;;-143.84;35.05;45039.53;5031940;28;20509;-71
2022/01/04 10:56:00;;;;;;;8.53;5.43;;;;;;;-143.84;35.56;45030.03;5031811;28;20557;-72
2022/01/04 10:58:31;;;;;;;9.20;4.93;;;;;;;-143.84;34.99;45047.16;5030803;28;20451;-75
2022/01/04 11:01:01;;;;;;;7.43;4.57;;;;;;;-143.84;34.38;45009.09;5031814;28;20585;-76
2022/01/04 11:03:33;;;;;;;4.77;3.83;;;;;;;-143.84;34.22;45041.44;5031411;28;20454;-76
2022/01/04 11:06:03;;;;;;;4.00;3.60;;;;;;;-143.84;33.46;45037.66;5030974;28;20439;-72
2022/01/04 11:08:31;;;;;;;10.93;4.10;;;;;;;-143.84;33.98;45045.25;5031097;28;21006;-73
2022/01/04 11:10:59;;;;;;;4.70;4.30;;;;;;;-143.84;34.10;45039.53;5031020;28;20529;-72
2022/01/04 11:13:27;;;;;;;13.30;6.47;;;;;;;-143.84;35.42;45016.69;5030627;28;20439;-72
2022/01/04 11:15:54;;;;;;;13.30;6.80;;;;;;;-143.84;35.50;45052.88;5030723;28;20486;-77
2022/01/04 11:18:21;;;;;;;20.37;7.83;;;;;;;-143.84;35.96;45054.78;5031462;28;20886;-78
2022/01/04 11:20:51;;;;;;;17.87;7.53;;;;;;;-143.84;36.07;45020.50;5031778;28;20447;-78
2022/01/04 11:23:24;;;;;;;12.20;7.67;;;;;;;-143.84;36.50;45043.34;5030925;28;20505;-77
2022/01/04 11:25:52;;;;;;;13.53;5.83;;;;;;;-143.84;36.88;45035.75;5031300;28;20982;-76
2022/01/04 11:28:21;;;;;;;8.10;5.97;;;;;;;-143.84;36.84;45043.34;5030685;28;20445;-72